sensor_id;sensor_type;location;lat;lon;timestamp;P1;durP1;ratioP1;P2;durP2;ratioP2
4365;SDS011;2196;47.422;9.656;2022-12-07T00:00:17;19.63;;;12.37;;
4365;SDS011;2196;47.422;9.656;2022-12-07T00:02:45;19.47;;;12.30;;
4365;SDS011;2196;47.422;9.656;2022-12-07T00:05:13;14.83;;;10.80;;
4365;SDS011;2196;47.422;9.656;2022-12-07T00:07:40;18.63;;;12.67;;
4365;SDS011;2196;47.422;9.656;2022-12-07T00:10:07;17.07;;;11.00;;
4365;SDS011;2196;47.422;9.656;2022-12-07T00:12:34;18.43;;;11.57;;
4365;SDS011;2196;47.422;9.656;2022-12-07T00:15:01;16.90;;;10.60;;
4365;SDS011;2196;47.422;9.656;2022-12-07T00:17:29;18.20;;;10.87;;
4365;SDS011;2196;47.422;9.656;2022-12-07T00:19:56;16.03;;;10.87;;
4365;SDS011;2196;47.422;9.656;2022-12-07T00:22:24;14.20;;;9.43;;
4365;SDS011;2196;47.422;9.656;2022-12-07T00:24:51;15.97;;;9.43;;
4365;SDS011;2196;47.422;9.656;2022-12-07T00:27:18;16.07;;;9.77;;
4365;SDS011;2196;47.422;9.656;2022-12-07T00:29:45;16.73;;;11.03;;
4365;SDS011;2196;47.422;9.656;2022-12-07T00:32:12;12.73;;;7.97;;
4365;SDS011;2196;47.422;9.656;2022-12-07T00:34:39;14.30;;;8.33;;
4365;SDS011;2196;47.422;9.656;2022-12-07T00:37:06;13.07;;;8.07;;
4365;SDS011;2196;47.422;9.656;2022-12-07T00:39:35;11.07;;;8.00;;
4365;SDS011;2196;47.422;9.656;2022-12-07T00:42:02;11.60;;;7.57;;
4365;SDS011;2196;47.422;9.656;2022-12-07T00:44:29;9.03;;;7.60;;
4365;SDS011;2196;47.422;9.656;2022-12-07T00:46:56;10.90;;;7.87;;
4365;SDS011;2196;47.422;9.656;2022-12-07T00:49:23;11.80;;;7.77;;
4365;SDS011;2196;47.422;9.656;2022-12-07T00:51:50;9.30;;;7.20;;
4365;SDS011;2196;47.422;9.656;2022-12-07T00:54:17;9.77;;;6.87;;
4365;SDS011;2196;47.422;9.656;2022-12-07T00:56:45;8.33;;;6.17;;
4365;SDS011;2196;47.422;9.656;2022-12-07T00:59:13;13.60;;;7.47;;
4365;SDS011;2196;47.422;9.656;2022-12-07T01:01:40;13.40;;;7.57;;
4365;SDS011;2196;47.422;9.656;2022-12-07T01:04:08;11.70;;;6.53;;
4365;SDS011;2196;47.422;9.656;2022-12-07T01:06:35;6.70;;;6.00;;
4365;SDS011;2196;47.422;9.656;2022-12-07T01:09:02;10.23;;;6.97;;
4365;SDS011;2196;47.422;9.656;2022-12-07T01:11:29;8.67;;;7.37;;
4365;SDS011;2196;47.422;9.656;2022-12-07T01:13:58;9.23;;;6.63;;
4365;SDS011;2196;47.422;9.656;2022-12-07T01:16:27;9.67;;;6.90;;
4365;SDS011;2196;47.422;9.656;2022-12-07T01:18:56;10.00;;;6.40;;
4365;SDS011;2196;47.422;9.656;2022-12-07T01:21:24;6.33;;;5.47;;
4365;SDS011;2196;47.422;9.656;2022-12-07T01:23:52;10.83;;;5.97;;
4365;SDS011;2196;47.422;9.656;2022-12-07T01:26:20;8.27;;;6.27;;
4365;SDS011;2196;47.422;9.656;2022-12-07T01:28:49;7.30;;;5.97;;
4365;SDS011;2196;47.422;9.656;2022-12-07T01:31:19;9.00;;;6.07;;
4365;SDS011;2196;47.422;9.656;2022-12-07T01:33:48;6.40;;;5.80;;
4365;SDS011;2196;47.422;9.656;2022-12-07T01:36:18;6.57;;;5.97;;
4365;SDS011;2196;47.422;9.656;2022-12-07T01:38:46;8.00;;;6.30;;
4365;SDS011;2196;47.422;9.656;2022-12-07T01:41:16;9.10;;;5.80;;
4365;SDS011;2196;47.422;9.656;2022-12-07T01:46:40;8.63;;;5.67;;
4365;SDS011;2196;47.422;9.656;2022-12-07T01:49:10;8.30;;;6.30;;
4365;SDS011;2196;47.422;9.656;2022-12-07T01:51:42;8.10;;;5.37;;
4365;SDS011;2196;47.422;9.656;2022-12-07T01:54:11;7.70;;;6.37;;
4365;SDS011;2196;47.422;9.656;2022-12-07T01:56:41;10.20;;;6.00;;
4365;SDS011;2196;47.422;9.656;2022-12-07T01:59:14;7.70;;;5.17;;
4365;SDS011;2196;47.422;9.656;2022-12-07T02:01:44;5.80;;;5.27;;
4365;SDS011;2196;47.422;9.656;2022-12-07T02:04:11;7.43;;;5.27;;
4365;SDS011;2196;47.422;9.656;2022-12-07T02:06:39;7.60;;;5.47;;
4365;SDS011;2196;47.422;9.656;2022-12-07T02:09:07;9.17;;;5.17;;
4365;SDS011;2196;47.422;9.656;2022-12-07T02:11:34;9.13;;;5.33;;
4365;SDS011;2196;47.422;9.656;2022-12-07T02:14:02;5.97;;;4.83;;
4365;SDS011;2196;47.422;9.656;2022-12-07T02:16:31;9.20;;;5.97;;
4365;SDS011;2196;47.422;9.656;2022-12-07T02:19:09;5.67;;;4.43;;
4365;SDS011;2196;47.422;9.656;2022-12-07T02:21:51;7.57;;;5.23;;
4365;SDS011;2196;47.422;9.656;2022-12-07T02:24:27;8.80;;;4.87;;
4365;SDS011;2196;47.422;9.656;2022-12-07T02:30:15;7.37;;;5.07;;
4365;SDS011;2196;47.422;9.656;2022-12-07T02:32:47;9.93;;;5.93;;
4365;SDS011;2196;47.422;9.656;2022-12-07T02:35:21;5.87;;;5.27;;
4365;SDS011;2196;47.422;9.656;2022-12-07T02:37:54;6.83;;;5.07;;
4365;SDS011;2196;47.422;9.656;2022-12-07T02:40:31;5.93;;;5.33;;
4365;SDS011;2196;47.422;9.656;2022-12-07T02:43:04;6.80;;;4.50;;
4365;SDS011;2196;47.422;9.656;2022-12-07T02:45:38;7.13;;;4.67;;
4365;SDS011;2196;47.422;9.656;2022-12-07T02:48:07;6.87;;;5.63;;
4365;SDS011;2196;47.422;9.656;2022-12-07T02:50:36;7.10;;;5.13;;
4365;SDS011;2196;47.422;9.656;2022-12-07T02:53:03;5.03;;;4.63;;
4365;SDS011;2196;47.422;9.656;2022-12-07T02:55:33;6.30;;;4.73;;
4365;SDS011;2196;47.422;9.656;2022-12-07T02:58:10;6.47;;;5.00;;
4365;SDS011;2196;47.422;9.656;2022-12-07T03:00:55;10.53;;;6.13;;
4365;SDS011;2196;47.422;9.656;2022-12-07T03:03:29;6.87;;;5.07;;
4365;SDS011;2196;47.422;9.656;2022-12-07T03:06:07;9.40;;;5.10;;
4365;SDS011;2196;47.422;9.656;2022-12-07T03:08:43;6.37;;;5.77;;
4365;SDS011;2196;47.422;9.656;2022-12-07T03:11:16;7.03;;;5.30;;
4365;SDS011;2196;47.422;9.656;2022-12-07T03:13:48;5.80;;;4.83;;
4365;SDS011;2196;47.422;9.656;2022-12-07T03:16:22;5.33;;;4.83;;
4365;SDS011;2196;47.422;9.656;2022-12-07T03:18:53;5.30;;;4.80;;
4365;SDS011;2196;47.422;9.656;2022-12-07T03:21:23;7.13;;;4.87;;
4365;SDS011;2196;47.422;9.656;2022-12-07T03:23:53;6.30;;;5.00;;
4365;SDS011;2196;47.422;9.656;2022-12-07T03:26:26;10.27;;;5.70;;
4365;SDS011;2196;47.422;9.656;2022-12-07T03:28:59;7.80;;;6.10;;
4365;SDS011;2196;47.422;9.656;2022-12-07T03:31:33;7.90;;;5.30;;
4365;SDS011;2196;47.422;9.656;2022-12-07T03:34:06;8.90;;;4.97;;
4365;SDS011;2196;47.422;9.656;2022-12-07T03:36:38;6.87;;;5.23;;
4365;SDS011;2196;47.422;9.656;2022-12-07T03:39:12;7.13;;;5.17;;
4365;SDS011;2196;47.422;9.656;2022-12-07T03:41:45;10.17;;;5.23;;
4365;SDS011;2196;47.422;9.656;2022-12-07T03:44:13;6.20;;;4.60;;
4365;SDS011;2196;47.422;9.656;2022-12-07T03:46:44;6.47;;;5.07;;
4365;SDS011;2196;47.422;9.656;2022-12-07T03:49:18;7.27;;;5.50;;
4365;SDS011;2196;47.422;9.656;2022-12-07T03:51:52;5.70;;;5.10;;
4365;SDS011;2196;47.422;9.656;2022-12-07T03:57:48;6.17;;;4.63;;
4365;SDS011;2196;47.422;9.656;2022-12-07T04:00:19;8.27;;;5.20;;
4365;SDS011;2196;47.422;9.656;2022-12-07T04:02:47;5.23;;;4.73;;
4365;SDS011;2196;47.422;9.656;2022-12-07T04:05:17;5.87;;;5.13;;
4365;SDS011;2196;47.422;9.656;2022-12-07T04:07:44;5.60;;;4.63;;
4365;SDS011;2196;47.422;9.656;2022-12-07T04:10:12;7.13;;;5.90;;
4365;SDS011;2196;47.422;9.656;2022-12-07T04:12:39;9.00;;;5.33;;
4365;SDS011;2196;47.422;9.656;2022-12-07T04:15:07;6.03;;;5.43;;
4365;SDS011;2196;47.422;9.656;2022-12-07T04:17:35;7.17;;;5.33;;
4365;SDS011;2196;47.422;9.656;2022-12-07T04:20:03;8.47;;;5.87;;
4365;SDS011;2196;47.422;9.656;2022-12-07T04:22:31;6.83;;;5.43;;
4365;SDS011;2196;47.422;9.656;2022-12-07T04:24:58;10.17;;;6.77;;
4365;SDS011;2196;47.422;9.656;2022-12-07T04:27:25;7.47;;;6.20;;
4365;SDS011;2196;47.422;9.656;2022-12-07T04:29:52;6.80;;;6.10;;
4365;SDS011;2196;47.422;9.656;2022-12-07T04:32:20;7.83;;;6.00;;
4365;SDS011;2196;47.422;9.656;2022-12-07T04:34:47;7.03;;;6.27;;
4365;SDS011;2196;47.422;9.656;2022-12-07T04:37:16;6.17;;;5.57;;
4365;SDS011;2196;47.422;9.656;2022-12-07T04:39:43;10.40;;;7.00;;
4365;SDS011;2196;47.422;9.656;2022-12-07T04:42:11;11.30;;;8.10;;
4365;SDS011;2196;47.422;9.656;2022-12-07T04:44:39;7.60;;;6.37;;
4365;SDS011;2196;47.422;9.656;2022-12-07T04:47:06;7.67;;;6.13;;
4365;SDS011;2196;47.422;9.656;2022-12-07T04:49:33;8.77;;;6.70;;
4365;SDS011;2196;47.422;9.656;2022-12-07T04:52:04;8.20;;;6.73;;
4365;SDS011;2196;47.422;9.656;2022-12-07T04:54:32;8.33;;;6.23;;
4365;SDS011;2196;47.422;9.656;2022-12-07T04:56:59;11.70;;;7.67;;
4365;SDS011;2196;47.422;9.656;2022-12-07T04:59:26;9.13;;;7.23;;
4365;SDS011;2196;47.422;9.656;2022-12-07T05:01:53;8.07;;;6.33;;
4365;SDS011;2196;47.422;9.656;2022-12-07T05:04:20;8.73;;;7.37;;
4365;SDS011;2196;47.422;9.656;2022-12-07T05:06:47;9.47;;;7.73;;
4365;SDS011;2196;47.422;9.656;2022-12-07T05:09:14;12.00;;;7.30;;
4365;SDS011;2196;47.422;9.656;2022-12-07T05:11:42;7.03;;;6.17;;
4365;SDS011;2196;47.422;9.656;2022-12-07T05:14:11;7.80;;;6.87;;
4365;SDS011;2196;47.422;9.656;2022-12-07T05:16:40;10.47;;;6.87;;
4365;SDS011;2196;47.422;9.656;2022-12-07T05:19:08;9.60;;;6.53;;
4365;SDS011;2196;47.422;9.656;2022-12-07T05:21:35;8.60;;;7.33;;
4365;SDS011;2196;47.422;9.656;2022-12-07T05:24:03;8.80;;;7.83;;
4365;SDS011;2196;47.422;9.656;2022-12-07T05:26:31;10.90;;;8.63;;
4365;SDS011;2196;47.422;9.656;2022-12-07T05:28:59;15.93;;;8.77;;
4365;SDS011;2196;47.422;9.656;2022-12-07T05:31:26;10.80;;;8.50;;
4365;SDS011;2196;47.422;9.656;2022-12-07T05:33:54;10.03;;;7.37;;
4365;SDS011;2196;47.422;9.656;2022-12-07T05:36:21;11.13;;;8.00;;
4365;SDS011;2196;47.422;9.656;2022-12-07T05:38:49;10.37;;;7.77;;
4365;SDS011;2196;47.422;9.656;2022-12-07T05:41:16;8.93;;;7.53;;
4365;SDS011;2196;47.422;9.656;2022-12-07T05:43:59;7.30;;;6.53;;
4365;SDS011;2196;47.422;9.656;2022-12-07T05:46:26;8.13;;;6.43;;
4365;SDS011;2196;47.422;9.656;2022-12-07T05:48:53;12.07;;;7.23;;
4365;SDS011;2196;47.422;9.656;2022-12-07T05:51:20;8.23;;;6.43;;
4365;SDS011;2196;47.422;9.656;2022-12-07T05:53:48;9.93;;;6.70;;
4365;SDS011;2196;47.422;9.656;2022-12-07T05:56:15;7.33;;;6.63;;
4365;SDS011;2196;47.422;9.656;2022-12-07T05:58:42;8.43;;;6.70;;
4365;SDS011;2196;47.422;9.656;2022-12-07T06:01:28;10.77;;;7.10;;
4365;SDS011;2196;47.422;9.656;2022-12-07T06:03:55;9.23;;;5.97;;
4365;SDS011;2196;47.422;9.656;2022-12-07T06:09:08;10.87;;;7.40;;
4365;SDS011;2196;47.422;9.656;2022-12-07T06:11:37;9.87;;;7.73;;
4365;SDS011;2196;47.422;9.656;2022-12-07T06:14:22;7.87;;;6.90;;
4365;SDS011;2196;47.422;9.656;2022-12-07T06:16:50;10.30;;;7.93;;
4365;SDS011;2196;47.422;9.656;2022-12-07T06:19:17;9.73;;;7.93;;
4365;SDS011;2196;47.422;9.656;2022-12-07T06:21:45;8.47;;;6.97;;
4365;SDS011;2196;47.422;9.656;2022-12-07T06:24:12;10.00;;;7.33;;
4365;SDS011;2196;47.422;9.656;2022-12-07T06:26:40;13.43;;;8.93;;
4365;SDS011;2196;47.422;9.656;2022-12-07T06:29:07;13.80;;;9.70;;
4365;SDS011;2196;47.422;9.656;2022-12-07T06:31:35;14.50;;;9.33;;
4365;SDS011;2196;47.422;9.656;2022-12-07T06:34:04;13.40;;;9.33;;
4365;SDS011;2196;47.422;9.656;2022-12-07T06:36:33;13.50;;;9.60;;
4365;SDS011;2196;47.422;9.656;2022-12-07T06:39:00;18.93;;;12.33;;
4365;SDS011;2196;47.422;9.656;2022-12-07T06:41:27;17.83;;;12.97;;
4365;SDS011;2196;47.422;9.656;2022-12-07T06:43:54;15.07;;;10.90;;
4365;SDS011;2196;47.422;9.656;2022-12-07T06:46:21;14.20;;;11.90;;
4365;SDS011;2196;47.422;9.656;2022-12-07T06:48:49;23.07;;;13.77;;
4365;SDS011;2196;47.422;9.656;2022-12-07T06:51:17;22.23;;;12.93;;
4365;SDS011;2196;47.422;9.656;2022-12-07T06:53:44;21.13;;;12.67;;
4365;SDS011;2196;47.422;9.656;2022-12-07T06:56:11;20.43;;;13.23;;
4365;SDS011;2196;47.422;9.656;2022-12-07T06:58:39;19.70;;;12.77;;
4365;SDS011;2196;47.422;9.656;2022-12-07T07:01:08;21.80;;;14.93;;
4365;SDS011;2196;47.422;9.656;2022-12-07T07:03:36;23.30;;;12.57;;
4365;SDS011;2196;47.422;9.656;2022-12-07T07:06:04;20.17;;;14.90;;
4365;SDS011;2196;47.422;9.656;2022-12-07T07:08:33;18.07;;;12.80;;
4365;SDS011;2196;47.422;9.656;2022-12-07T07:11:01;18.23;;;12.97;;
4365;SDS011;2196;47.422;9.656;2022-12-07T07:13:28;15.33;;;11.23;;
4365;SDS011;2196;47.422;9.656;2022-12-07T07:15:55;14.43;;;11.37;;
4365;SDS011;2196;47.422;9.656;2022-12-07T07:18:22;15.30;;;11.80;;
4365;SDS011;2196;47.422;9.656;2022-12-07T07:20:49;16.00;;;12.00;;
4365;SDS011;2196;47.422;9.656;2022-12-07T07:23:17;16.50;;;10.47;;
4365;SDS011;2196;47.422;9.656;2022-12-07T07:25:45;15.03;;;11.27;;
4365;SDS011;2196;47.422;9.656;2022-12-07T07:28:12;18.20;;;10.90;;
4365;SDS011;2196;47.422;9.656;2022-12-07T07:30:39;19.40;;;12.13;;
4365;SDS011;2196;47.422;9.656;2022-12-07T07:33:07;21.83;;;12.53;;
4365;SDS011;2196;47.422;9.656;2022-12-07T07:35:35;17.03;;;12.17;;
4365;SDS011;2196;47.422;9.656;2022-12-07T07:38:03;18.57;;;12.10;;
4365;SDS011;2196;47.422;9.656;2022-12-07T07:40:30;16.07;;;11.87;;
4365;SDS011;2196;47.422;9.656;2022-12-07T07:42:58;15.90;;;11.67;;
4365;SDS011;2196;47.422;9.656;2022-12-07T07:45:26;16.57;;;11.93;;
4365;SDS011;2196;47.422;9.656;2022-12-07T07:47:53;20.03;;;12.83;;
4365;SDS011;2196;47.422;9.656;2022-12-07T07:50:20;19.00;;;11.13;;
4365;SDS011;2196;47.422;9.656;2022-12-07T07:52:48;20.27;;;12.60;;
4365;SDS011;2196;47.422;9.656;2022-12-07T07:55:15;21.83;;;12.53;;
4365;SDS011;2196;47.422;9.656;2022-12-07T07:57:42;23.73;;;13.80;;
4365;SDS011;2196;47.422;9.656;2022-12-07T08:00:12;17.63;;;12.87;;
4365;SDS011;2196;47.422;9.656;2022-12-07T08:02:40;19.90;;;14.27;;
4365;SDS011;2196;47.422;9.656;2022-12-07T08:05:09;18.77;;;12.77;;
4365;SDS011;2196;47.422;9.656;2022-12-07T08:07:37;18.97;;;14.33;;
4365;SDS011;2196;47.422;9.656;2022-12-07T08:10:05;20.03;;;13.30;;
4365;SDS011;2196;47.422;9.656;2022-12-07T08:12:35;16.67;;;11.97;;
4365;SDS011;2196;47.422;9.656;2022-12-07T08:15:25;16.90;;;11.97;;
4365;SDS011;2196;47.422;9.656;2022-12-07T08:17:53;15.90;;;12.47;;
4365;SDS011;2196;47.422;9.656;2022-12-07T08:20:20;18.00;;;10.83;;
4365;SDS011;2196;47.422;9.656;2022-12-07T08:22:47;15.07;;;11.03;;
4365;SDS011;2196;47.422;9.656;2022-12-07T08:25:14;18.83;;;11.57;;
4365;SDS011;2196;47.422;9.656;2022-12-07T08:27:41;16.73;;;11.83;;
4365;SDS011;2196;47.422;9.656;2022-12-07T08:30:09;16.93;;;11.73;;
4365;SDS011;2196;47.422;9.656;2022-12-07T08:32:37;19.27;;;11.70;;
4365;SDS011;2196;47.422;9.656;2022-12-07T08:35:05;19.80;;;11.30;;
4365;SDS011;2196;47.422;9.656;2022-12-07T08:37:33;13.37;;;10.43;;
4365;SDS011;2196;47.422;9.656;2022-12-07T08:40:00;19.97;;;11.80;;
4365;SDS011;2196;47.422;9.656;2022-12-07T08:42:27;13.87;;;10.47;;
4365;SDS011;2196;47.422;9.656;2022-12-07T08:44:55;16.87;;;11.47;;
4365;SDS011;2196;47.422;9.656;2022-12-07T08:47:23;16.93;;;11.23;;
4365;SDS011;2196;47.422;9.656;2022-12-07T08:49:52;15.63;;;11.47;;
4365;SDS011;2196;47.422;9.656;2022-12-07T08:52:20;11.70;;;9.83;;
4365;SDS011;2196;47.422;9.656;2022-12-07T08:54:47;15.60;;;10.80;;
4365;SDS011;2196;47.422;9.656;2022-12-07T08:57:14;14.23;;;10.03;;
4365;SDS011;2196;47.422;9.656;2022-12-07T08:59:42;13.63;;;9.73;;
4365;SDS011;2196;47.422;9.656;2022-12-07T09:02:09;12.77;;;8.70;;
4365;SDS011;2196;47.422;9.656;2022-12-07T09:04:36;16.97;;;10.30;;
4365;SDS011;2196;47.422;9.656;2022-12-07T09:07:04;13.03;;;9.83;;
4365;SDS011;2196;47.422;9.656;2022-12-07T09:09:31;14.73;;;9.53;;
4365;SDS011;2196;47.422;9.656;2022-12-07T09:11:59;12.10;;;9.20;;
4365;SDS011;2196;47.422;9.656;2022-12-07T09:14:26;14.40;;;9.23;;
4365;SDS011;2196;47.422;9.656;2022-12-07T09:16:53;12.30;;;9.13;;
4365;SDS011;2196;47.422;9.656;2022-12-07T09:19:20;13.33;;;9.43;;
4365;SDS011;2196;47.422;9.656;2022-12-07T09:21:47;12.30;;;8.83;;
4365;SDS011;2196;47.422;9.656;2022-12-07T09:24:15;10.37;;;7.57;;
4365;SDS011;2196;47.422;9.656;2022-12-07T09:26:42;11.13;;;7.60;;
4365;SDS011;2196;47.422;9.656;2022-12-07T09:29:09;9.40;;;7.97;;
4365;SDS011;2196;47.422;9.656;2022-12-07T09:31:36;10.00;;;7.17;;
4365;SDS011;2196;47.422;9.656;2022-12-07T09:34:03;11.90;;;8.17;;
4365;SDS011;2196;47.422;9.656;2022-12-07T09:36:31;12.47;;;8.77;;
4365;SDS011;2196;47.422;9.656;2022-12-07T09:38:58;12.43;;;8.70;;
4365;SDS011;2196;47.422;9.656;2022-12-07T09:41:27;11.70;;;8.70;;
4365;SDS011;2196;47.422;9.656;2022-12-07T09:43:58;13.60;;;9.60;;
4365;SDS011;2196;47.422;9.656;2022-12-07T09:46:29;9.17;;;7.27;;
4365;SDS011;2196;47.422;9.656;2022-12-07T09:49:02;12.60;;;7.33;;
4365;SDS011;2196;47.422;9.656;2022-12-07T09:51:30;12.90;;;7.97;;
4365;SDS011;2196;47.422;9.656;2022-12-07T09:53:58;9.47;;;7.27;;
4365;SDS011;2196;47.422;9.656;2022-12-07T09:56:29;8.73;;;6.50;;
4365;SDS011;2196;47.422;9.656;2022-12-07T09:58:58;12.50;;;7.53;;
4365;SDS011;2196;47.422;9.656;2022-12-07T10:01:30;9.93;;;7.37;;
4365;SDS011;2196;47.422;9.656;2022-12-07T10:04:05;8.83;;;6.70;;
4365;SDS011;2196;47.422;9.656;2022-12-07T10:06:38;10.60;;;6.13;;
4365;SDS011;2196;47.422;9.656;2022-12-07T10:09:08;9.83;;;6.90;;
4365;SDS011;2196;47.422;9.656;2022-12-07T10:14:28;9.57;;;6.87;;
4365;SDS011;2196;47.422;9.656;2022-12-07T10:16:57;11.90;;;7.00;;
4365;SDS011;2196;47.422;9.656;2022-12-07T10:19:25;9.33;;;6.93;;
4365;SDS011;2196;47.422;9.656;2022-12-07T10:22:01;10.17;;;6.10;;
4365;SDS011;2196;47.422;9.656;2022-12-07T10:24:35;10.27;;;6.33;;
4365;SDS011;2196;47.422;9.656;2022-12-07T10:27:18;10.07;;;5.77;;
4365;SDS011;2196;47.422;9.656;2022-12-07T10:29:47;8.90;;;6.13;;
4365;SDS011;2196;47.422;9.656;2022-12-07T10:32:28;9.40;;;6.57;;
4365;SDS011;2196;47.422;9.656;2022-12-07T10:37:45;8.37;;;6.30;;
4365;SDS011;2196;47.422;9.656;2022-12-07T10:40:23;9.13;;;7.13;;
4365;SDS011;2196;47.422;9.656;2022-12-07T10:43:04;12.90;;;7.23;;
4365;SDS011;2196;47.422;9.656;2022-12-07T10:45:45;9.80;;;6.70;;
4365;SDS011;2196;47.422;9.656;2022-12-07T10:48:45;8.63;;;7.53;;
4365;SDS011;2196;47.422;9.656;2022-12-07T10:51:24;12.93;;;8.13;;
4365;SDS011;2196;47.422;9.656;2022-12-07T10:54:00;10.53;;;8.33;;
4365;SDS011;2196;47.422;9.656;2022-12-07T10:56:40;13.60;;;8.53;;
4365;SDS011;2196;47.422;9.656;2022-12-07T11:02:30;13.77;;;9.40;;
4365;SDS011;2196;47.422;9.656;2022-12-07T11:05:10;13.07;;;9.07;;
4365;SDS011;2196;47.422;9.656;2022-12-07T11:07:45;13.13;;;8.80;;
4365;SDS011;2196;47.422;9.656;2022-12-07T11:10:20;17.10;;;9.67;;
4365;SDS011;2196;47.422;9.656;2022-12-07T11:12:57;11.23;;;7.97;;
4365;SDS011;2196;47.422;9.656;2022-12-07T11:15:46;11.23;;;8.90;;
4365;SDS011;2196;47.422;9.656;2022-12-07T11:18:22;11.47;;;9.00;;
4365;SDS011;2196;47.422;9.656;2022-12-07T11:20:56;14.77;;;10.10;;
4365;SDS011;2196;47.422;9.656;2022-12-07T11:23:36;13.83;;;9.03;;
4365;SDS011;2196;47.422;9.656;2022-12-07T11:26:16;13.97;;;9.17;;
4365;SDS011;2196;47.422;9.656;2022-12-07T11:29:01;11.23;;;9.23;;
4365;SDS011;2196;47.422;9.656;2022-12-07T11:31:45;12.80;;;9.53;;
4365;SDS011;2196;47.422;9.656;2022-12-07T11:34:25;19.77;;;10.47;;
4365;SDS011;2196;47.422;9.656;2022-12-07T11:37:01;18.90;;;10.73;;
4365;SDS011;2196;47.422;9.656;2022-12-07T11:39:39;16.10;;;9.60;;
4365;SDS011;2196;47.422;9.656;2022-12-07T11:42:12;17.57;;;10.03;;
4365;SDS011;2196;47.422;9.656;2022-12-07T11:44:45;12.13;;;9.23;;
4365;SDS011;2196;47.422;9.656;2022-12-07T11:47:20;11.43;;;9.83;;
4365;SDS011;2196;47.422;9.656;2022-12-07T11:49:54;18.73;;;10.63;;
4365;SDS011;2196;47.422;9.656;2022-12-07T11:52:27;16.17;;;10.27;;
4365;SDS011;2196;47.422;9.656;2022-12-07T11:55:12;14.40;;;9.07;;
4365;SDS011;2196;47.422;9.656;2022-12-07T11:57:45;14.17;;;9.10;;
4365;SDS011;2196;47.422;9.656;2022-12-07T12:00:18;12.07;;;9.40;;
4365;SDS011;2196;47.422;9.656;2022-12-07T12:02:48;14.17;;;10.10;;
4365;SDS011;2196;47.422;9.656;2022-12-07T12:05:21;11.90;;;8.97;;
4365;SDS011;2196;47.422;9.656;2022-12-07T12:07:50;14.77;;;9.53;;
4365;SDS011;2196;47.422;9.656;2022-12-07T12:10:26;14.03;;;9.50;;
4365;SDS011;2196;47.422;9.656;2022-12-07T12:13:20;13.93;;;9.87;;
4365;SDS011;2196;47.422;9.656;2022-12-07T12:16:05;14.17;;;9.27;;
4365;SDS011;2196;47.422;9.656;2022-12-07T12:18:49;14.97;;;9.00;;
4365;SDS011;2196;47.422;9.656;2022-12-07T12:21:28;12.33;;;8.43;;
4365;SDS011;2196;47.422;9.656;2022-12-07T12:23:57;13.67;;;8.33;;
4365;SDS011;2196;47.422;9.656;2022-12-07T12:26:29;19.17;;;8.80;;
4365;SDS011;2196;47.422;9.656;2022-12-07T12:28:59;13.37;;;9.50;;
4365;SDS011;2196;47.422;9.656;2022-12-07T12:31:31;16.73;;;10.53;;
4365;SDS011;2196;47.422;9.656;2022-12-07T12:34:03;17.13;;;8.67;;
4365;SDS011;2196;47.422;9.656;2022-12-07T12:36:46;13.43;;;9.70;;
4365;SDS011;2196;47.422;9.656;2022-12-07T12:39:13;15.23;;;9.13;;
4365;SDS011;2196;47.422;9.656;2022-12-07T12:41:56;16.10;;;10.03;;
4365;SDS011;2196;47.422;9.656;2022-12-07T12:44:40;16.87;;;11.00;;
4365;SDS011;2196;47.422;9.656;2022-12-07T12:47:42;18.63;;;10.83;;
4365;SDS011;2196;47.422;9.656;2022-12-07T12:50:22;18.40;;;12.00;;
4365;SDS011;2196;47.422;9.656;2022-12-07T12:52:55;16.93;;;10.47;;
4365;SDS011;2196;47.422;9.656;2022-12-07T12:58:48;24.53;;;11.97;;
4365;SDS011;2196;47.422;9.656;2022-12-07T13:01:37;24.27;;;14.23;;
4365;SDS011;2196;47.422;9.656;2022-12-07T13:07:47;19.00;;;12.47;;
4365;SDS011;2196;47.422;9.656;2022-12-07T13:10:21;21.00;;;14.10;;
4365;SDS011;2196;47.422;9.656;2022-12-07T13:12:56;23.00;;;14.47;;
4365;SDS011;2196;47.422;9.656;2022-12-07T13:18:22;24.47;;;14.87;;
4365;SDS011;2196;47.422;9.656;2022-12-07T13:20:54;21.60;;;13.13;;
4365;SDS011;2196;47.422;9.656;2022-12-07T13:23:27;17.00;;;11.80;;
4365;SDS011;2196;47.422;9.656;2022-12-07T13:28:43;16.27;;;11.27;;
4365;SDS011;2196;47.422;9.656;2022-12-07T13:31:18;18.17;;;12.33;;
4365;SDS011;2196;47.422;9.656;2022-12-07T13:34:04;18.80;;;11.57;;
4365;SDS011;2196;47.422;9.656;2022-12-07T13:36:53;20.70;;;12.10;;
4365;SDS011;2196;47.422;9.656;2022-12-07T13:39:21;18.07;;;11.60;;
4365;SDS011;2196;47.422;9.656;2022-12-07T13:41:50;18.43;;;11.40;;
4365;SDS011;2196;47.422;9.656;2022-12-07T13:44:18;18.27;;;11.83;;
4365;SDS011;2196;47.422;9.656;2022-12-07T13:46:48;17.00;;;11.23;;
4365;SDS011;2196;47.422;9.656;2022-12-07T13:49:22;15.43;;;10.63;;
4365;SDS011;2196;47.422;9.656;2022-12-07T13:51:50;18.77;;;10.90;;
4365;SDS011;2196;47.422;9.656;2022-12-07T13:54:20;17.10;;;10.67;;
4365;SDS011;2196;47.422;9.656;2022-12-07T13:56:48;16.57;;;10.97;;
4365;SDS011;2196;47.422;9.656;2022-12-07T13:59:18;17.10;;;11.47;;
4365;SDS011;2196;47.422;9.656;2022-12-07T14:01:47;15.93;;;9.53;;
4365;SDS011;2196;47.422;9.656;2022-12-07T14:04:33;15.90;;;10.77;;
4365;SDS011;2196;47.422;9.656;2022-12-07T14:07:17;21.63;;;11.77;;
4365;SDS011;2196;47.422;9.656;2022-12-07T14:09:54;15.57;;;9.80;;
4365;SDS011;2196;47.422;9.656;2022-12-07T14:12:23;13.80;;;10.10;;
4365;SDS011;2196;47.422;9.656;2022-12-07T14:14:51;17.37;;;10.23;;
4365;SDS011;2196;47.422;9.656;2022-12-07T14:17:20;15.60;;;10.53;;
4365;SDS011;2196;47.422;9.656;2022-12-07T14:19:50;24.27;;;13.37;;
4365;SDS011;2196;47.422;9.656;2022-12-07T14:22:22;15.60;;;10.47;;
4365;SDS011;2196;47.422;9.656;2022-12-07T14:25:13;16.53;;;10.37;;
4365;SDS011;2196;47.422;9.656;2022-12-07T14:27:55;21.10;;;11.40;;
4365;SDS011;2196;47.422;9.656;2022-12-07T14:30:24;15.53;;;9.77;;
4365;SDS011;2196;47.422;9.656;2022-12-07T14:32:53;22.27;;;10.27;;
4365;SDS011;2196;47.422;9.656;2022-12-07T14:35:23;15.60;;;10.10;;
4365;SDS011;2196;47.422;9.656;2022-12-07T14:37:50;16.40;;;10.90;;
4365;SDS011;2196;47.422;9.656;2022-12-07T14:40:19;18.67;;;11.43;;
4365;SDS011;2196;47.422;9.656;2022-12-07T14:42:49;17.60;;;10.43;;
4365;SDS011;2196;47.422;9.656;2022-12-07T14:45:20;18.10;;;10.83;;
4365;SDS011;2196;47.422;9.656;2022-12-07T14:47:48;15.80;;;11.03;;
4365;SDS011;2196;47.422;9.656;2022-12-07T14:50:16;16.60;;;10.50;;
4365;SDS011;2196;47.422;9.656;2022-12-07T14:52:44;19.77;;;12.20;;
4365;SDS011;2196;47.422;9.656;2022-12-07T14:55:16;17.80;;;12.07;;
4365;SDS011;2196;47.422;9.656;2022-12-07T14:57:49;20.27;;;10.87;;
4365;SDS011;2196;47.422;9.656;2022-12-07T15:00:16;17.50;;;11.47;;
4365;SDS011;2196;47.422;9.656;2022-12-07T15:02:44;18.83;;;11.40;;
4365;SDS011;2196;47.422;9.656;2022-12-07T15:05:12;19.47;;;11.77;;
4365;SDS011;2196;47.422;9.656;2022-12-07T15:07:39;17.33;;;10.80;;
4365;SDS011;2196;47.422;9.656;2022-12-07T15:10:09;19.43;;;12.63;;
4365;SDS011;2196;47.422;9.656;2022-12-07T15:12:43;19.10;;;13.07;;
4365;SDS011;2196;47.422;9.656;2022-12-07T15:15:10;22.57;;;12.97;;
4365;SDS011;2196;47.422;9.656;2022-12-07T15:17:37;23.80;;;13.27;;
4365;SDS011;2196;47.422;9.656;2022-12-07T15:20:05;21.23;;;12.33;;
4365;SDS011;2196;47.422;9.656;2022-12-07T15:22:34;25.43;;;14.10;;
4365;SDS011;2196;47.422;9.656;2022-12-07T15:25:01;22.77;;;12.77;;
4365;SDS011;2196;47.422;9.656;2022-12-07T15:27:29;23.63;;;13.00;;
4365;SDS011;2196;47.422;9.656;2022-12-07T15:29:58;21.90;;;13.67;;
4365;SDS011;2196;47.422;9.656;2022-12-07T15:32:25;21.50;;;14.27;;
4365;SDS011;2196;47.422;9.656;2022-12-07T15:34:52;30.30;;;16.50;;
4365;SDS011;2196;47.422;9.656;2022-12-07T15:37:19;26.30;;;14.90;;
4365;SDS011;2196;47.422;9.656;2022-12-07T15:39:46;25.33;;;14.87;;
4365;SDS011;2196;47.422;9.656;2022-12-07T15:42:13;24.93;;;14.60;;
4365;SDS011;2196;47.422;9.656;2022-12-07T15:44:40;23.97;;;15.53;;
4365;SDS011;2196;47.422;9.656;2022-12-07T15:47:25;28.80;;;15.60;;
4365;SDS011;2196;47.422;9.656;2022-12-07T15:49:52;25.80;;;15.07;;
4365;SDS011;2196;47.422;9.656;2022-12-07T15:52:19;30.30;;;16.73;;
4365;SDS011;2196;47.422;9.656;2022-12-07T15:54:46;28.03;;;15.67;;